sensor_id;sensor_type;location;lat;lon;timestamp;P1;durP1;ratioP1;P2;durP2;ratioP2
54271;SDS011;40184;53.362;5.216;2023-08-12T00:00:31;10.20;;;4.05;;
54271;SDS011;40184;53.362;5.216;2023-08-12T00:02:57;11.85;;;4.53;;
54271;SDS011;40184;53.362;5.216;2023-08-12T00:05:23;14.88;;;3.63;;
54271;SDS011;40184;53.362;5.216;2023-08-12T00:07:49;8.65;;;3.50;;
54271;SDS011;40184;53.362;5.216;2023-08-12T00:10:15;9.02;;;3.22;;
54271;SDS011;40184;53.362;5.216;2023-08-12T00:12:42;12.40;;;4.13;;
54271;SDS011;40184;53.362;5.216;2023-08-12T00:15:08;13.13;;;3.63;;
54271;SDS011;40184;53.362;5.216;2023-08-12T00:17:35;13.02;;;3.60;;
54271;SDS011;40184;53.362;5.216;2023-08-12T00:20:02;12.80;;;4.35;;
54271;SDS011;40184;53.362;5.216;2023-08-12T00:22:33;17.38;;;3.47;;
54271;SDS011;40184;53.362;5.216;2023-08-12T00:24:59;18.98;;;4.28;;
54271;SDS011;40184;53.362;5.216;2023-08-12T00:27:25;13.40;;;3.72;;
54271;SDS011;40184;53.362;5.216;2023-08-12T00:29:51;15.13;;;3.63;;
54271;SDS011;40184;53.362;5.216;2023-08-12T00:32:17;17.95;;;4.72;;
54271;SDS011;40184;53.362;5.216;2023-08-12T00:34:44;13.70;;;3.85;;
54271;SDS011;40184;53.362;5.216;2023-08-12T00:37:10;14.82;;;4.07;;
54271;SDS011;40184;53.362;5.216;2023-08-12T00:39:36;16.17;;;3.78;;
54271;SDS011;40184;53.362;5.216;2023-08-12T00:42:02;13.38;;;3.50;;
54271;SDS011;40184;53.362;5.216;2023-08-12T00:44:28;20.23;;;4.18;;
54271;SDS011;40184;53.362;5.216;2023-08-12T00:46:54;17.63;;;4.55;;
54271;SDS011;40184;53.362;5.216;2023-08-12T00:49:21;10.05;;;3.65;;
54271;SDS011;40184;53.362;5.216;2023-08-12T00:51:48;13.68;;;3.78;;
54271;SDS011;40184;53.362;5.216;2023-08-12T00:54:15;11.82;;;3.45;;
54271;SDS011;40184;53.362;5.216;2023-08-12T00:56:42;10.90;;;3.58;;
54271;SDS011;40184;53.362;5.216;2023-08-12T00:59:09;14.18;;;4.32;;
54271;SDS011;40184;53.362;5.216;2023-08-12T01:01:35;10.93;;;3.20;;
54271;SDS011;40184;53.362;5.216;2023-08-12T01:04:04;15.25;;;3.70;;
54271;SDS011;40184;53.362;5.216;2023-08-12T01:06:30;18.17;;;3.65;;
54271;SDS011;40184;53.362;5.216;2023-08-12T01:08:56;13.25;;;3.03;;
54271;SDS011;40184;53.362;5.216;2023-08-12T01:11:28;9.43;;;3.30;;
54271;SDS011;40184;53.362;5.216;2023-08-12T01:16:21;12.38;;;3.85;;
54271;SDS011;40184;53.362;5.216;2023-08-12T01:18:48;10.57;;;3.20;;
54271;SDS011;40184;53.362;5.216;2023-08-12T01:21:16;12.60;;;3.47;;
54271;SDS011;40184;53.362;5.216;2023-08-12T01:23:45;11.68;;;3.30;;
54271;SDS011;40184;53.362;5.216;2023-08-12T01:26:12;15.43;;;3.40;;
54271;SDS011;40184;53.362;5.216;2023-08-12T01:28:38;9.85;;;3.42;;
54271;SDS011;40184;53.362;5.216;2023-08-12T01:33:52;17.63;;;3.72;;
54271;SDS011;40184;53.362;5.216;2023-08-12T01:36:20;22.85;;;4.63;;
54271;SDS011;40184;53.362;5.216;2023-08-12T01:38:47;9.18;;;3.60;;
54271;SDS011;40184;53.362;5.216;2023-08-12T01:41:14;18.65;;;4.13;;
54271;SDS011;40184;53.362;5.216;2023-08-12T01:43:41;11.13;;;3.72;;
54271;SDS011;40184;53.362;5.216;2023-08-12T01:46:07;13.93;;;3.38;;
54271;SDS011;40184;53.362;5.216;2023-08-12T01:48:33;11.35;;;2.97;;
54271;SDS011;40184;53.362;5.216;2023-08-12T01:50:59;15.82;;;4.22;;
54271;SDS011;40184;53.362;5.216;2023-08-12T01:53:26;13.82;;;3.50;;
54271;SDS011;40184;53.362;5.216;2023-08-12T01:55:52;13.50;;;4.22;;
54271;SDS011;40184;53.362;5.216;2023-08-12T01:58:18;10.77;;;3.35;;
54271;SDS011;40184;53.362;5.216;2023-08-12T02:00:44;12.10;;;3.97;;
54271;SDS011;40184;53.362;5.216;2023-08-12T02:03:10;11.23;;;4.07;;
54271;SDS011;40184;53.362;5.216;2023-08-12T02:05:36;17.33;;;5.50;;
54271;SDS011;40184;53.362;5.216;2023-08-12T02:08:03;16.40;;;3.90;;
54271;SDS011;40184;53.362;5.216;2023-08-12T02:10:29;16.95;;;4.38;;
54271;SDS011;40184;53.362;5.216;2023-08-12T02:12:56;14.73;;;3.85;;
54271;SDS011;40184;53.362;5.216;2023-08-12T02:15:22;12.55;;;4.20;;
54271;SDS011;40184;53.362;5.216;2023-08-12T02:17:48;16.02;;;4.53;;
54271;SDS011;40184;53.362;5.216;2023-08-12T02:20:14;11.65;;;3.80;;
54271;SDS011;40184;53.362;5.216;2023-08-12T02:22:40;14.77;;;4.55;;
54271;SDS011;40184;53.362;5.216;2023-08-12T02:25:06;21.20;;;4.63;;
54271;SDS011;40184;53.362;5.216;2023-08-12T02:27:32;13.40;;;3.88;;
54271;SDS011;40184;53.362;5.216;2023-08-12T02:29:58;15.77;;;4.05;;
54271;SDS011;40184;53.362;5.216;2023-08-12T02:32:24;11.88;;;3.60;;
54271;SDS011;40184;53.362;5.216;2023-08-12T02:34:50;15.70;;;4.63;;
54271;SDS011;40184;53.362;5.216;2023-08-12T02:37:17;13.63;;;3.72;;
54271;SDS011;40184;53.362;5.216;2023-08-12T02:39:43;12.00;;;4.28;;
54271;SDS011;40184;53.362;5.216;2023-08-12T02:42:09;14.55;;;3.95;;
54271;SDS011;40184;53.362;5.216;2023-08-12T02:44:35;14.52;;;4.30;;
54271;SDS011;40184;53.362;5.216;2023-08-12T02:47:01;14.50;;;3.95;;
54271;SDS011;40184;53.362;5.216;2023-08-12T02:49:27;12.68;;;4.20;;
54271;SDS011;40184;53.362;5.216;2023-08-12T02:51:53;11.23;;;3.70;;
54271;SDS011;40184;53.362;5.216;2023-08-12T02:54:19;13.35;;;3.88;;
54271;SDS011;40184;53.362;5.216;2023-08-12T02:56:45;13.70;;;3.72;;
54271;SDS011;40184;53.362;5.216;2023-08-12T02:59:11;11.55;;;4.80;;
54271;SDS011;40184;53.362;5.216;2023-08-12T03:01:37;13.00;;;3.88;;
54271;SDS011;40184;53.362;5.216;2023-08-12T03:04:03;13.25;;;4.22;;
54271;SDS011;40184;53.362;5.216;2023-08-12T03:06:29;13.55;;;4.00;;
54271;SDS011;40184;53.362;5.216;2023-08-12T03:08:55;12.80;;;3.90;;
54271;SDS011;40184;53.362;5.216;2023-08-12T03:11:22;17.63;;;4.35;;
54271;SDS011;40184;53.362;5.216;2023-08-12T03:13:48;10.73;;;4.07;;
54271;SDS011;40184;53.362;5.216;2023-08-12T03:16:14;11.85;;;3.60;;
54271;SDS011;40184;53.362;5.216;2023-08-12T03:18:40;13.93;;;4.35;;
54271;SDS011;40184;53.362;5.216;2023-08-12T03:21:07;14.85;;;4.43;;
54271;SDS011;40184;53.362;5.216;2023-08-12T03:23:34;13.15;;;4.60;;
54271;SDS011;40184;53.362;5.216;2023-08-12T03:26:00;17.33;;;4.40;;
54271;SDS011;40184;53.362;5.216;2023-08-12T03:28:26;14.82;;;4.75;;
54271;SDS011;40184;53.362;5.216;2023-08-12T03:30:52;15.73;;;4.38;;
54271;SDS011;40184;53.362;5.216;2023-08-12T03:33:19;12.90;;;4.00;;
54271;SDS011;40184;53.362;5.216;2023-08-12T03:35:45;15.38;;;4.90;;
54271;SDS011;40184;53.362;5.216;2023-08-12T03:38:12;13.73;;;4.28;;
54271;SDS011;40184;53.362;5.216;2023-08-12T03:40:38;14.90;;;4.30;;
54271;SDS011;40184;53.362;5.216;2023-08-12T03:43:04;13.35;;;5.35;;
54271;SDS011;40184;53.362;5.216;2023-08-12T03:45:30;11.27;;;4.18;;
54271;SDS011;40184;53.362;5.216;2023-08-12T03:47:56;17.20;;;5.00;;
54271;SDS011;40184;53.362;5.216;2023-08-12T03:50:22;11.55;;;4.90;;
54271;SDS011;40184;53.362;5.216;2023-08-12T03:52:48;14.88;;;5.63;;
54271;SDS011;40184;53.362;5.216;2023-08-12T03:55:14;12.77;;;5.15;;
54271;SDS011;40184;53.362;5.216;2023-08-12T03:57:40;16.67;;;5.53;;
54271;SDS011;40184;53.362;5.216;2023-08-12T04:00:07;13.45;;;4.53;;
54271;SDS011;40184;53.362;5.216;2023-08-12T04:02:33;16.77;;;5.03;;
54271;SDS011;40184;53.362;5.216;2023-08-12T04:05:00;16.65;;;5.18;;
54271;SDS011;40184;53.362;5.216;2023-08-12T04:07:26;18.08;;;4.72;;
54271;SDS011;40184;53.362;5.216;2023-08-12T04:09:52;16.50;;;5.00;;
54271;SDS011;40184;53.362;5.216;2023-08-12T04:12:18;12.85;;;4.43;;
54271;SDS011;40184;53.362;5.216;2023-08-12T04:14:44;11.05;;;4.93;;
54271;SDS011;40184;53.362;5.216;2023-08-12T04:17:10;14.43;;;5.60;;
54271;SDS011;40184;53.362;5.216;2023-08-12T04:19:36;17.15;;;6.93;;
54271;SDS011;40184;53.362;5.216;2023-08-12T04:22:02;19.90;;;6.10;;
54271;SDS011;40184;53.362;5.216;2023-08-12T04:24:28;12.68;;;5.82;;
54271;SDS011;40184;53.362;5.216;2023-08-12T04:26:54;12.13;;;5.68;;
54271;SDS011;40184;53.362;5.216;2023-08-12T04:29:20;13.65;;;5.78;;
54271;SDS011;40184;53.362;5.216;2023-08-12T04:31:46;13.55;;;6.13;;
54271;SDS011;40184;53.362;5.216;2023-08-12T04:34:12;22.25;;;7.13;;
54271;SDS011;40184;53.362;5.216;2023-08-12T04:36:39;21.33;;;7.53;;
54271;SDS011;40184;53.362;5.216;2023-08-12T04:39:05;16.30;;;6.55;;
54271;SDS011;40184;53.362;5.216;2023-08-12T04:41:31;10.80;;;6.35;;
54271;SDS011;40184;53.362;5.216;2023-08-12T04:43:58;15.75;;;7.20;;
54271;SDS011;40184;53.362;5.216;2023-08-12T04:46:24;16.23;;;7.47;;
54271;SDS011;40184;53.362;5.216;2023-08-12T04:48:50;15.52;;;6.68;;
54271;SDS011;40184;53.362;5.216;2023-08-12T04:51:16;10.90;;;6.57;;
54271;SDS011;40184;53.362;5.216;2023-08-12T04:53:42;14.02;;;7.40;;
54271;SDS011;40184;53.362;5.216;2023-08-12T04:56:08;15.05;;;6.28;;
54271;SDS011;40184;53.362;5.216;2023-08-12T04:58:34;17.27;;;6.57;;
54271;SDS011;40184;53.362;5.216;2023-08-12T05:01:00;16.23;;;7.55;;
54271;SDS011;40184;53.362;5.216;2023-08-12T05:03:28;20.23;;;7.20;;
54271;SDS011;40184;53.362;5.216;2023-08-12T05:05:54;19.08;;;7.60;;
54271;SDS011;40184;53.362;5.216;2023-08-12T05:08:20;21.65;;;7.13;;
54271;SDS011;40184;53.362;5.216;2023-08-12T05:10:47;13.90;;;6.60;;
54271;SDS011;40184;53.362;5.216;2023-08-12T05:13:13;19.13;;;7.28;;
54271;SDS011;40184;53.362;5.216;2023-08-12T05:15:39;20.20;;;7.25;;
54271;SDS011;40184;53.362;5.216;2023-08-12T05:18:06;12.25;;;6.35;;
54271;SDS011;40184;53.362;5.216;2023-08-12T05:20:32;15.27;;;6.20;;
54271;SDS011;40184;53.362;5.216;2023-08-12T05:22:58;25.38;;;7.22;;
54271;SDS011;40184;53.362;5.216;2023-08-12T05:25:24;12.95;;;6.00;;
54271;SDS011;40184;53.362;5.216;2023-08-12T05:27:50;16.60;;;6.25;;
54271;SDS011;40184;53.362;5.216;2023-08-12T05:30:16;20.20;;;7.20;;
54271;SDS011;40184;53.362;5.216;2023-08-12T05:32:42;14.70;;;6.60;;
54271;SDS011;40184;53.362;5.216;2023-08-12T05:35:08;16.88;;;6.20;;
54271;SDS011;40184;53.362;5.216;2023-08-12T05:37:34;17.83;;;6.95;;
54271;SDS011;40184;53.362;5.216;2023-08-12T05:40:01;18.70;;;7.03;;
54271;SDS011;40184;53.362;5.216;2023-08-12T05:42:28;13.13;;;5.70;;
54271;SDS011;40184;53.362;5.216;2023-08-12T05:44:54;19.33;;;7.00;;
54271;SDS011;40184;53.362;5.216;2023-08-12T05:47:20;16.55;;;6.50;;
54271;SDS011;40184;53.362;5.216;2023-08-12T05:49:46;12.43;;;5.70;;
54271;SDS011;40184;53.362;5.216;2023-08-12T05:52:12;12.75;;;6.07;;
54271;SDS011;40184;53.362;5.216;2023-08-12T05:54:38;13.75;;;5.63;;
54271;SDS011;40184;53.362;5.216;2023-08-12T05:57:04;14.75;;;6.18;;
54271;SDS011;40184;53.362;5.216;2023-08-12T05:59:31;18.55;;;6.95;;
54271;SDS011;40184;53.362;5.216;2023-08-12T06:01:57;21.50;;;7.10;;
54271;SDS011;40184;53.362;5.216;2023-08-12T06:04:23;14.23;;;6.00;;
54271;SDS011;40184;53.362;5.216;2023-08-12T06:06:49;12.25;;;5.28;;
54271;SDS011;40184;53.362;5.216;2023-08-12T06:09:16;11.82;;;6.15;;
54271;SDS011;40184;53.362;5.216;2023-08-12T06:11:42;18.17;;;6.40;;
54271;SDS011;40184;53.362;5.216;2023-08-12T06:14:08;15.25;;;5.97;;
54271;SDS011;40184;53.362;5.216;2023-08-12T06:16:34;15.70;;;7.28;;
54271;SDS011;40184;53.362;5.216;2023-08-12T06:19:00;15.48;;;6.50;;
54271;SDS011;40184;53.362;5.216;2023-08-12T06:21:26;23.23;;;7.68;;
54271;SDS011;40184;53.362;5.216;2023-08-12T06:23:52;17.20;;;8.80;;
54271;SDS011;40184;53.362;5.216;2023-08-12T06:26:18;21.15;;;9.23;;
54271;SDS011;40184;53.362;5.216;2023-08-12T06:28:44;20.38;;;9.98;;
54271;SDS011;40184;53.362;5.216;2023-08-12T06:31:10;14.88;;;9.32;;
54271;SDS011;40184;53.362;5.216;2023-08-12T06:33:36;18.52;;;9.13;;
54271;SDS011;40184;53.362;5.216;2023-08-12T06:36:03;20.60;;;9.13;;
54271;SDS011;40184;53.362;5.216;2023-08-12T06:38:29;16.10;;;9.27;;
54271;SDS011;40184;53.362;5.216;2023-08-12T06:40:55;16.60;;;9.15;;
54271;SDS011;40184;53.362;5.216;2023-08-12T06:43:21;16.25;;;8.27;;
54271;SDS011;40184;53.362;5.216;2023-08-12T06:45:47;13.18;;;7.63;;
54271;SDS011;40184;53.362;5.216;2023-08-12T06:48:13;17.50;;;7.68;;
54271;SDS011;40184;53.362;5.216;2023-08-12T06:50:39;17.17;;;7.18;;
54271;SDS011;40184;53.362;5.216;2023-08-12T06:53:05;20.95;;;8.32;;
54271;SDS011;40184;53.362;5.216;2023-08-12T06:55:32;15.90;;;8.05;;
54271;SDS011;40184;53.362;5.216;2023-08-12T06:57:59;17.00;;;7.82;;
54271;SDS011;40184;53.362;5.216;2023-08-12T07:00:25;12.82;;;7.40;;
54271;SDS011;40184;53.362;5.216;2023-08-12T07:02:51;17.20;;;7.03;;
54271;SDS011;40184;53.362;5.216;2023-08-12T07:05:17;15.55;;;8.27;;
54271;SDS011;40184;53.362;5.216;2023-08-12T07:07:43;15.38;;;8.25;;
54271;SDS011;40184;53.362;5.216;2023-08-12T07:10:10;18.23;;;7.75;;
54271;SDS011;40184;53.362;5.216;2023-08-12T07:12:36;17.17;;;7.50;;
54271;SDS011;40184;53.362;5.216;2023-08-12T07:15:02;16.40;;;8.57;;
54271;SDS011;40184;53.362;5.216;2023-08-12T07:17:28;18.67;;;8.57;;
54271;SDS011;40184;53.362;5.216;2023-08-12T07:19:54;13.43;;;8.27;;
54271;SDS011;40184;53.362;5.216;2023-08-12T07:22:20;13.50;;;7.38;;
54271;SDS011;40184;53.362;5.216;2023-08-12T07:24:46;11.18;;;7.43;;
54271;SDS011;40184;53.362;5.216;2023-08-12T07:27:12;15.73;;;7.68;;
54271;SDS011;40184;53.362;5.216;2023-08-12T07:29:38;9.38;;;7.97;;
54271;SDS011;40184;53.362;5.216;2023-08-12T07:32:05;13.07;;;7.72;;
54271;SDS011;40184;53.362;5.216;2023-08-12T07:34:31;17.75;;;8.27;;
54271;SDS011;40184;53.362;5.216;2023-08-12T07:36:57;15.35;;;8.30;;
54271;SDS011;40184;53.362;5.216;2023-08-12T07:39:23;20.33;;;7.88;;
54271;SDS011;40184;53.362;5.216;2023-08-12T07:41:49;16.08;;;8.63;;
54271;SDS011;40184;53.362;5.216;2023-08-12T07:44:16;17.45;;;9.38;;
54271;SDS011;40184;53.362;5.216;2023-08-12T07:46:42;29.38;;;10.70;;
54271;SDS011;40184;53.362;5.216;2023-08-12T07:49:08;25.98;;;10.27;;
54271;SDS011;40184;53.362;5.216;2023-08-12T07:51:35;18.90;;;10.32;;
54271;SDS011;40184;53.362;5.216;2023-08-12T07:54:01;17.20;;;9.63;;
54271;SDS011;40184;53.362;5.216;2023-08-12T07:56:27;17.50;;;9.80;;
54271;SDS011;40184;53.362;5.216;2023-08-12T07:58:53;14.40;;;10.25;;
54271;SDS011;40184;53.362;5.216;2023-08-12T08:01:19;15.40;;;8.63;;
54271;SDS011;40184;53.362;5.216;2023-08-12T08:03:45;17.35;;;8.65;;
54271;SDS011;40184;53.362;5.216;2023-08-12T08:06:11;18.27;;;9.02;;
54271;SDS011;40184;53.362;5.216;2023-08-12T08:08:37;14.00;;;9.35;;
54271;SDS011;40184;53.362;5.216;2023-08-12T08:11:04;14.50;;;8.20;;
54271;SDS011;40184;53.362;5.216;2023-08-12T08:13:31;19.33;;;8.80;;
54271;SDS011;40184;53.362;5.216;2023-08-12T08:15:57;16.98;;;7.53;;
54271;SDS011;40184;53.362;5.216;2023-08-12T08:18:23;12.70;;;6.75;;
54271;SDS011;40184;53.362;5.216;2023-08-12T08:20:49;14.18;;;6.03;;
54271;SDS011;40184;53.362;5.216;2023-08-12T08:23:15;8.63;;;2.35;;
54271;SDS011;40184;53.362;5.216;2023-08-12T08:25:41;9.68;;;2.60;;
54271;SDS011;40184;53.362;5.216;2023-08-12T08:28:07;14.60;;;4.55;;
54271;SDS011;40184;53.362;5.216;2023-08-12T08:30:33;8.07;;;3.25;;
54271;SDS011;40184;53.362;5.216;2023-08-12T08:32:59;13.25;;;5.93;;
54271;SDS011;40184;53.362;5.216;2023-08-12T08:35:26;11.70;;;5.97;;
54271;SDS011;40184;53.362;5.216;2023-08-12T08:37:52;6.90;;;3.00;;
54271;SDS011;40184;53.362;5.216;2023-08-12T08:40:19;8.05;;;2.38;;
54271;SDS011;40184;53.362;5.216;2023-08-12T08:42:45;10.57;;;2.33;;
54271;SDS011;40184;53.362;5.216;2023-08-12T08:45:13;21.60;;;5.25;;
54271;SDS011;40184;53.362;5.216;2023-08-12T08:47:39;10.68;;;3.38;;
54271;SDS011;40184;53.362;5.216;2023-08-12T08:50:06;13.00;;;3.28;;
54271;SDS011;40184;53.362;5.216;2023-08-12T08:52:34;9.40;;;3.28;;
54271;SDS011;40184;53.362;5.216;2023-08-12T08:55:01;14.57;;;2.60;;
54271;SDS011;40184;53.362;5.216;2023-08-12T08:57:27;10.85;;;2.75;;
54271;SDS011;40184;53.362;5.216;2023-08-12T08:59:53;6.90;;;2.17;;
54271;SDS011;40184;53.362;5.216;2023-08-12T09:02:20;9.55;;;2.92;;
54271;SDS011;40184;53.362;5.216;2023-08-12T09:04:46;10.07;;;2.85;;
54271;SDS011;40184;53.362;5.216;2023-08-12T09:07:13;12.00;;;3.83;;
54271;SDS011;40184;53.362;5.216;2023-08-12T09:09:40;11.15;;;3.15;;
54271;SDS011;40184;53.362;5.216;2023-08-12T09:12:08;14.50;;;3.25;;
54271;SDS011;40184;53.362;5.216;2023-08-12T09:14:35;12.38;;;3.83;;
54271;SDS011;40184;53.362;5.216;2023-08-12T09:17:01;15.80;;;3.80;;
54271;SDS011;40184;53.362;5.216;2023-08-12T09:19:27;14.05;;;3.38;;
54271;SDS011;40184;53.362;5.216;2023-08-12T09:21:54;14.95;;;3.17;;
54271;SDS011;40184;53.362;5.216;2023-08-12T09:24:24;15.88;;;4.53;;
54271;SDS011;40184;53.362;5.216;2023-08-12T09:26:53;19.95;;;4.00;;
54271;SDS011;40184;53.362;5.216;2023-08-12T09:29:23;11.63;;;3.05;;
54271;SDS011;40184;53.362;5.216;2023-08-12T09:31:52;12.35;;;3.13;;
54271;SDS011;40184;53.362;5.216;2023-08-12T09:34:18;12.90;;;3.30;;
54271;SDS011;40184;53.362;5.216;2023-08-12T09:36:45;12.77;;;3.65;;
54271;SDS011;40184;53.362;5.216;2023-08-12T09:39:12;9.88;;;3.67;;
54271;SDS011;40184;53.362;5.216;2023-08-12T09:41:38;9.57;;;2.70;;
54271;SDS011;40184;53.362;5.216;2023-08-12T09:44:04;8.15;;;3.00;;
54271;SDS011;40184;53.362;5.216;2023-08-12T09:46:32;13.52;;;2.58;;
54271;SDS011;40184;53.362;5.216;2023-08-12T09:48:59;8.10;;;3.10;;
54271;SDS011;40184;53.362;5.216;2023-08-12T09:51:25;10.65;;;2.70;;
54271;SDS011;40184;53.362;5.216;2023-08-12T09:53:51;13.18;;;3.38;;
54271;SDS011;40184;53.362;5.216;2023-08-12T09:56:18;7.50;;;2.22;;
54271;SDS011;40184;53.362;5.216;2023-08-12T09:58:49;10.45;;;3.60;;
54271;SDS011;40184;53.362;5.216;2023-08-12T10:01:17;10.90;;;3.63;;
54271;SDS011;40184;53.362;5.216;2023-08-12T10:03:45;15.20;;;2.92;;
54271;SDS011;40184;53.362;5.216;2023-08-12T10:06:14;12.68;;;2.72;;
54271;SDS011;40184;53.362;5.216;2023-08-12T10:08:40;10.65;;;2.70;;
54271;SDS011;40184;53.362;5.216;2023-08-12T10:11:07;9.48;;;3.20;;
54271;SDS011;40184;53.362;5.216;2023-08-12T10:13:34;7.15;;;2.55;;
54271;SDS011;40184;53.362;5.216;2023-08-12T10:16:01;5.20;;;2.20;;
54271;SDS011;40184;53.362;5.216;2023-08-12T10:18:28;7.53;;;2.97;;
54271;SDS011;40184;53.362;5.216;2023-08-12T10:20:54;9.40;;;2.45;;
54271;SDS011;40184;53.362;5.216;2023-08-12T10:23:23;13.57;;;2.65;;
54271;SDS011;40184;53.362;5.216;2023-08-12T10:25:50;8.10;;;2.75;;
54271;SDS011;40184;53.362;5.216;2023-08-12T10:28:19;10.18;;;3.00;;
54271;SDS011;40184;53.362;5.216;2023-08-12T10:30:45;10.90;;;2.70;;
54271;SDS011;40184;53.362;5.216;2023-08-12T10:33:13;8.32;;;2.70;;
54271;SDS011;40184;53.362;5.216;2023-08-12T10:38:07;9.82;;;2.33;;
54271;SDS011;40184;53.362;5.216;2023-08-12T10:40:33;14.07;;;2.80;;
54271;SDS011;40184;53.362;5.216;2023-08-12T10:43:00;14.55;;;3.50;;
54271;SDS011;40184;53.362;5.216;2023-08-12T10:45:40;12.07;;;3.17;;
54271;SDS011;40184;53.362;5.216;2023-08-12T10:48:15;10.00;;;2.63;;
54271;SDS011;40184;53.362;5.216;2023-08-12T10:50:43;11.70;;;3.50;;
54271;SDS011;40184;53.362;5.216;2023-08-12T10:53:20;7.88;;;3.22;;
54271;SDS011;40184;53.362;5.216;2023-08-12T10:55:48;11.10;;;2.75;;
54271;SDS011;40184;53.362;5.216;2023-08-12T10:58:24;16.98;;;4.00;;
54271;SDS011;40184;53.362;5.216;2023-08-12T11:00:54;16.60;;;3.63;;
54271;SDS011;40184;53.362;5.216;2023-08-12T11:03:20;10.15;;;2.72;;
54271;SDS011;40184;53.362;5.216;2023-08-12T11:05:46;15.77;;;4.93;;
54271;SDS011;40184;53.362;5.216;2023-08-12T11:08:13;11.68;;;3.53;;
54271;SDS011;40184;53.362;5.216;2023-08-12T11:10:39;11.43;;;3.05;;
54271;SDS011;40184;53.362;5.216;2023-08-12T11:13:05;18.85;;;3.65;;
54271;SDS011;40184;53.362;5.216;2023-08-12T11:18:05;14.43;;;3.88;;
54271;SDS011;40184;53.362;5.216;2023-08-12T11:20:31;10.30;;;3.17;;
54271;SDS011;40184;53.362;5.216;2023-08-12T11:22:58;17.98;;;3.78;;
54271;SDS011;40184;53.362;5.216;2023-08-12T11:25:25;13.68;;;3.55;;
54271;SDS011;40184;53.362;5.216;2023-08-12T11:27:51;18.13;;;3.80;;
54271;SDS011;40184;53.362;5.216;2023-08-12T11:30:18;11.88;;;3.20;;
54271;SDS011;40184;53.362;5.216;2023-08-12T11:32:45;13.63;;;3.10;;
54271;SDS011;40184;53.362;5.216;2023-08-12T11:35:12;12.20;;;3.38;;
54271;SDS011;40184;53.362;5.216;2023-08-12T11:37:40;13.65;;;3.50;;
54271;SDS011;40184;53.362;5.216;2023-08-12T11:40:07;13.40;;;4.03;;
54271;SDS011;40184;53.362;5.216;2023-08-12T11:42:39;12.45;;;3.88;;
54271;SDS011;40184;53.362;5.216;2023-08-12T11:45:07;14.85;;;4.85;;
54271;SDS011;40184;53.362;5.216;2023-08-12T11:47:34;15.38;;;3.67;;
54271;SDS011;40184;53.362;5.216;2023-08-12T11:50:03;16.25;;;3.95;;
54271;SDS011;40184;53.362;5.216;2023-08-12T11:52:29;16.58;;;4.45;;
54271;SDS011;40184;53.362;5.216;2023-08-12T11:54:56;15.65;;;3.78;;
54271;SDS011;40184;53.362;5.216;2023-08-12T11:57:22;15.75;;;4.30;;
54271;SDS011;40184;53.362;5.216;2023-08-12T11:59:51;17.45;;;4.93;;
54271;SDS011;40184;53.362;5.216;2023-08-12T12:02:19;22.15;;;5.57;;
54271;SDS011;40184;53.362;5.216;2023-08-12T12:04:46;15.60;;;4.38;;
54271;SDS011;40184;53.362;5.216;2023-08-12T12:07:22;19.23;;;4.90;;
54271;SDS011;40184;53.362;5.216;2023-08-12T12:09:51;15.48;;;4.10;;
54271;SDS011;40184;53.362;5.216;2023-08-12T12:12:22;12.95;;;3.53;;
54271;SDS011;40184;53.362;5.216;2023-08-12T12:14:50;11.57;;;3.78;;
54271;SDS011;40184;53.362;5.216;2023-08-12T12:17:17;23.20;;;4.85;;
54271;SDS011;40184;53.362;5.216;2023-08-12T12:19:43;12.50;;;3.63;;
54271;SDS011;40184;53.362;5.216;2023-08-12T12:22:10;18.10;;;4.20;;
54271;SDS011;40184;53.362;5.216;2023-08-12T12:24:45;16.05;;;4.43;;
54271;SDS011;40184;53.362;5.216;2023-08-12T12:27:12;10.80;;;3.53;;
54271;SDS011;40184;53.362;5.216;2023-08-12T12:29:38;14.82;;;4.18;;
54271;SDS011;40184;53.362;5.216;2023-08-12T12:32:04;12.52;;;3.15;;
54271;SDS011;40184;53.362;5.216;2023-08-12T12:34:30;11.05;;;3.88;;
54271;SDS011;40184;53.362;5.216;2023-08-12T12:36:56;16.05;;;4.85;;
54271;SDS011;40184;53.362;5.216;2023-08-12T12:39:22;17.00;;;4.25;;
54271;SDS011;40184;53.362;5.216;2023-08-12T12:41:49;17.52;;;4.00;;
54271;SDS011;40184;53.362;5.216;2023-08-12T12:44:15;13.95;;;3.47;;
54271;SDS011;40184;53.362;5.216;2023-08-12T12:46:41;13.27;;;3.78;;
54271;SDS011;40184;53.362;5.216;2023-08-12T12:49:07;13.48;;;4.38;;
54271;SDS011;40184;53.362;5.216;2023-08-12T12:51:33;15.60;;;3.80;;
54271;SDS011;40184;53.362;5.216;2023-08-12T12:53:59;13.93;;;4.35;;
54271;SDS011;40184;53.362;5.216;2023-08-12T12:56:25;17.08;;;3.85;;
54271;SDS011;40184;53.362;5.216;2023-08-12T12:58:51;15.57;;;4.53;;
54271;SDS011;40184;53.362;5.216;2023-08-12T13:01:17;11.55;;;3.30;;
54271;SDS011;40184;53.362;5.216;2023-08-12T13:03:43;13.00;;;3.40;;
54271;SDS011;40184;53.362;5.216;2023-08-12T13:06:09;16.02;;;4.28;;
54271;SDS011;40184;53.362;5.216;2023-08-12T13:08:35;13.82;;;4.05;;
54271;SDS011;40184;53.362;5.216;2023-08-12T13:11:02;15.20;;;3.70;;
54271;SDS011;40184;53.362;5.216;2023-08-12T13:13:28;12.63;;;3.60;;
54271;SDS011;40184;53.362;5.216;2023-08-12T13:15:54;16.27;;;4.32;;
54271;SDS011;40184;53.362;5.216;2023-08-12T13:18:20;12.98;;;4.30;;
54271;SDS011;40184;53.362;5.216;2023-08-12T13:20:46;15.55;;;4.05;;
54271;SDS011;40184;53.362;5.216;2023-08-12T13:23:13;18.80;;;3.97;;
54271;SDS011;40184;53.362;5.216;2023-08-12T13:25:40;20.17;;;4.38;;
54271;SDS011;40184;53.362;5.216;2023-08-12T13:28:06;16.35;;;3.88;;
54271;SDS011;40184;53.362;5.216;2023-08-12T13:30:33;15.77;;;3.95;;
54271;SDS011;40184;53.362;5.216;2023-08-12T13:32:59;14.93;;;4.40;;
54271;SDS011;40184;53.362;5.216;2023-08-12T13:35:25;14.82;;;3.58;;
54271;SDS011;40184;53.362;5.216;2023-08-12T13:37:51;16.15;;;3.80;;
54271;SDS011;40184;53.362;5.216;2023-08-12T13:40:17;16.13;;;3.75;;
54271;SDS011;40184;53.362;5.216;2023-08-12T13:42:44;16.08;;;3.97;;
54271;SDS011;40184;53.362;5.216;2023-08-12T13:45:11;13.95;;;3.47;;
54271;SDS011;40184;53.362;5.216;2023-08-12T13:47:37;13.15;;;4.10;;
54271;SDS011;40184;53.362;5.216;2023-08-12T13:50:04;15.13;;;4.43;;
54271;SDS011;40184;53.362;5.216;2023-08-12T13:52:30;18.02;;;4.93;;
54271;SDS011;40184;53.362;5.216;2023-08-12T13:54:56;15.38;;;3.60;;
54271;SDS011;40184;53.362;5.216;2023-08-12T13:57:22;12.80;;;3.72;;
54271;SDS011;40184;53.362;5.216;2023-08-12T13:59:48;10.13;;;2.95;;
54271;SDS011;40184;53.362;5.216;2023-08-12T14:02:14;13.07;;;3.97;;
54271;SDS011;40184;53.362;5.216;2023-08-12T14:04:41;15.73;;;4.03;;
54271;SDS011;40184;53.362;5.216;2023-08-12T14:07:07;17.73;;;5.07;;
54271;SDS011;40184;53.362;5.216;2023-08-12T14:09:33;13.65;;;4.50;;
54271;SDS011;40184;53.362;5.216;2023-08-12T14:11:59;12.65;;;3.40;;
54271;SDS011;40184;53.362;5.216;2023-08-12T14:14:26;16.30;;;4.38;;
54271;SDS011;40184;53.362;5.216;2023-08-12T14:16:53;12.15;;;3.42;;
54271;SDS011;40184;53.362;5.216;2023-08-12T14:19:19;8.55;;;3.75;;
54271;SDS011;40184;53.362;5.216;2023-08-12T14:21:45;12.88;;;3.72;;
54271;SDS011;40184;53.362;5.216;2023-08-12T14:24:11;11.48;;;3.97;;
54271;SDS011;40184;53.362;5.216;2023-08-12T14:26:40;17.55;;;3.85;;
54271;SDS011;40184;53.362;5.216;2023-08-12T14:29:07;10.52;;;3.67;;
54271;SDS011;40184;53.362;5.216;2023-08-12T14:31:33;14.25;;;4.10;;
54271;SDS011;40184;53.362;5.216;2023-08-12T14:33:59;12.40;;;4.13;;
54271;SDS011;40184;53.362;5.216;2023-08-12T14:36:26;14.15;;;3.85;;
54271;SDS011;40184;53.362;5.216;2023-08-12T14:38:53;14.48;;;3.92;;
54271;SDS011;40184;53.362;5.216;2023-08-12T14:41:19;18.90;;;4.18;;